sensor_id;sensor_type;location;lat;lon;timestamp;temperature;humidity
58638;DHT22;54976;51.510;7.522;2023-12-29T00:00:43;11.20;94.90
58638;DHT22;54976;51.510;7.522;2023-12-29T00:03:43;11.30;94.90
58638;DHT22;54976;51.510;7.522;2023-12-29T00:06:44;11.30;95.00
58638;DHT22;54976;51.510;7.522;2023-12-29T00:09:44;11.20;95.40
58638;DHT22;54976;51.510;7.522;2023-12-29T00:12:45;11.30;95.20
58638;DHT22;54976;51.510;7.522;2023-12-29T00:15:45;11.30;95.30
58638;DHT22;54976;51.510;7.522;2023-12-29T00:18:47;11.30;95.70
58638;DHT22;54976;51.510;7.522;2023-12-29T00:21:47;11.20;95.50
58638;DHT22;54976;51.510;7.522;2023-12-29T00:24:48;11.20;95.90
58638;DHT22;54976;51.510;7.522;2023-12-29T00:27:48;11.30;95.70
58638;DHT22;54976;51.510;7.522;2023-12-29T00:30:50;11.30;95.70
58638;DHT22;54976;51.510;7.522;2023-12-29T00:33:52;11.40;95.70
58638;DHT22;54976;51.510;7.522;2023-12-29T00:36:53;11.30;95.60
58638;DHT22;54976;51.510;7.522;2023-12-29T00:39:54;11.40;95.70
58638;DHT22;54976;51.510;7.522;2023-12-29T00:42:55;11.40;95.60
58638;DHT22;54976;51.510;7.522;2023-12-29T00:45:56;11.40;95.70
58638;DHT22;54976;51.510;7.522;2023-12-29T00:48:56;11.40;95.90
58638;DHT22;54976;51.510;7.522;2023-12-29T00:51:57;11.40;95.70
58638;DHT22;54976;51.510;7.522;2023-12-29T00:54:57;11.50;95.90
58638;DHT22;54976;51.510;7.522;2023-12-29T00:58:04;11.50;95.80
58638;DHT22;54976;51.510;7.522;2023-12-29T01:01:08;11.40;95.70
58638;DHT22;54976;51.510;7.522;2023-12-29T01:04:09;11.40;95.70
58638;DHT22;54976;51.510;7.522;2023-12-29T01:07:09;11.40;96.00
58638;DHT22;54976;51.510;7.522;2023-12-29T01:10:10;11.50;95.50
58638;DHT22;54976;51.510;7.522;2023-12-29T01:13:11;11.50;95.40
58638;DHT22;54976;51.510;7.522;2023-12-29T01:16:12;11.50;95.70
58638;DHT22;54976;51.510;7.522;2023-12-29T01:19:12;11.50;95.60
58638;DHT22;54976;51.510;7.522;2023-12-29T01:22:13;11.50;95.70
58638;DHT22;54976;51.510;7.522;2023-12-29T01:25:13;11.40;95.70
58638;DHT22;54976;51.510;7.522;2023-12-29T01:28:14;11.50;95.80
58638;DHT22;54976;51.510;7.522;2023-12-29T01:31:14;11.50;95.70
58638;DHT22;54976;51.510;7.522;2023-12-29T01:34:15;11.50;95.90
58638;DHT22;54976;51.510;7.522;2023-12-29T01:37:16;11.50;95.90
58638;DHT22;54976;51.510;7.522;2023-12-29T01:40:16;11.40;95.70
58638;DHT22;54976;51.510;7.522;2023-12-29T01:43:17;11.50;95.60
58638;DHT22;54976;51.510;7.522;2023-12-29T01:46:18;11.50;95.80
58638;DHT22;54976;51.510;7.522;2023-12-29T01:49:20;11.50;95.80
58638;DHT22;54976;51.510;7.522;2023-12-29T01:52:21;11.50;95.80
58638;DHT22;54976;51.510;7.522;2023-12-29T01:55:21;11.50;95.80
58638;DHT22;54976;51.510;7.522;2023-12-29T01:58:22;11.50;95.90
58638;DHT22;54976;51.510;7.522;2023-12-29T02:01:23;11.50;95.80
58638;DHT22;54976;51.510;7.522;2023-12-29T02:04:24;11.50;96.30
58638;DHT22;54976;51.510;7.522;2023-12-29T02:07:25;11.40;97.20
58638;DHT22;54976;51.510;7.522;2023-12-29T02:10:30;11.40;97.80
58638;DHT22;54976;51.510;7.522;2023-12-29T02:13:31;11.30;98.40
58638;DHT22;54976;51.510;7.522;2023-12-29T02:19:42;11.20;99.30
58638;DHT22;54976;51.510;7.522;2023-12-29T02:22:46;11.10;99.30
58638;DHT22;54976;51.510;7.522;2023-12-29T02:25:46;11.10;98.70
58638;DHT22;54976;51.510;7.522;2023-12-29T02:28:55;11.20;99.50
58638;DHT22;54976;51.510;7.522;2023-12-29T02:31:59;11.10;99.90
58638;DHT22;54976;51.510;7.522;2023-12-29T02:35:01;10.90;99.90
58638;DHT22;54976;51.510;7.522;2023-12-29T02:38:02;10.90;99.90
58638;DHT22;54976;51.510;7.522;2023-12-29T02:41:03;10.50;99.90
58638;DHT22;54976;51.510;7.522;2023-12-29T02:44:04;10.40;99.90
58638;DHT22;54976;51.510;7.522;2023-12-29T02:47:05;10.40;99.90
58638;DHT22;54976;51.510;7.522;2023-12-29T02:50:06;10.20;99.90
58638;DHT22;54976;51.510;7.522;2023-12-29T02:53:06;10.10;99.90
58638;DHT22;54976;51.510;7.522;2023-12-29T02:56:07;10.10;99.90
58638;DHT22;54976;51.510;7.522;2023-12-29T02:59:07;10.10;99.90
58638;DHT22;54976;51.510;7.522;2023-12-29T03:02:08;10.00;99.90
58638;DHT22;54976;51.510;7.522;2023-12-29T03:05:09;10.00;99.90
58638;DHT22;54976;51.510;7.522;2023-12-29T03:08:09;9.80;99.90
58638;DHT22;54976;51.510;7.522;2023-12-29T03:11:10;9.80;99.90
58638;DHT22;54976;51.510;7.522;2023-12-29T03:14:10;9.80;99.90
58638;DHT22;54976;51.510;7.522;2023-12-29T03:17:11;9.80;99.90
58638;DHT22;54976;51.510;7.522;2023-12-29T03:20:12;9.70;99.90
58638;DHT22;54976;51.510;7.522;2023-12-29T03:23:13;9.70;99.90
58638;DHT22;54976;51.510;7.522;2023-12-29T03:26:14;9.70;99.90
58638;DHT22;54976;51.510;7.522;2023-12-29T03:29:15;9.70;99.90
58638;DHT22;54976;51.510;7.522;2023-12-29T03:32:15;9.70;99.90
58638;DHT22;54976;51.510;7.522;2023-12-29T03:35:16;9.80;99.90
58638;DHT22;54976;51.510;7.522;2023-12-29T03:38:17;9.80;99.90
58638;DHT22;54976;51.510;7.522;2023-12-29T03:41:18;9.90;99.90
58638;DHT22;54976;51.510;7.522;2023-12-29T03:44:19;9.90;99.90
58638;DHT22;54976;51.510;7.522;2023-12-29T03:47:19;10.00;99.90
58638;DHT22;54976;51.510;7.522;2023-12-29T03:50:20;10.10;99.90
58638;DHT22;54976;51.510;7.522;2023-12-29T03:53:20;10.20;99.90
58638;DHT22;54976;51.510;7.522;2023-12-29T03:56:21;10.20;99.90
58638;DHT22;54976;51.510;7.522;2023-12-29T03:59:22;10.20;99.90
58638;DHT22;54976;51.510;7.522;2023-12-29T04:02:22;10.20;99.90
58638;DHT22;54976;51.510;7.522;2023-12-29T04:05:23;10.30;99.90
58638;DHT22;54976;51.510;7.522;2023-12-29T04:08:23;10.30;99.90
58638;DHT22;54976;51.510;7.522;2023-12-29T04:11:24;10.30;99.90
58638;DHT22;54976;51.510;7.522;2023-12-29T04:14:25;10.30;99.90
58638;DHT22;54976;51.510;7.522;2023-12-29T04:17:25;10.40;99.90
58638;DHT22;54976;51.510;7.522;2023-12-29T04:20:26;10.40;99.90
58638;DHT22;54976;51.510;7.522;2023-12-29T04:23:26;10.50;99.90
58638;DHT22;54976;51.510;7.522;2023-12-29T04:26:27;10.60;99.90
58638;DHT22;54976;51.510;7.522;2023-12-29T04:29:28;10.60;99.90
58638;DHT22;54976;51.510;7.522;2023-12-29T04:32:28;10.50;99.90
58638;DHT22;54976;51.510;7.522;2023-12-29T04:35:29;10.60;99.90
58638;DHT22;54976;51.510;7.522;2023-12-29T04:38:29;10.50;99.90
58638;DHT22;54976;51.510;7.522;2023-12-29T04:41:30;10.60;99.90
58638;DHT22;54976;51.510;7.522;2023-12-29T04:44:30;10.60;99.90
58638;DHT22;54976;51.510;7.522;2023-12-29T04:47:31;10.60;99.90
58638;DHT22;54976;51.510;7.522;2023-12-29T04:50:31;10.70;99.90
58638;DHT22;54976;51.510;7.522;2023-12-29T04:53:32;10.70;99.90
58638;DHT22;54976;51.510;7.522;2023-12-29T04:56:32;10.70;99.90
58638;DHT22;54976;51.510;7.522;2023-12-29T04:59:33;10.70;99.90
58638;DHT22;54976;51.510;7.522;2023-12-29T05:02:34;10.90;99.90
58638;DHT22;54976;51.510;7.522;2023-12-29T05:05:34;10.90;99.90
58638;DHT22;54976;51.510;7.522;2023-12-29T05:08:35;10.90;99.90
58638;DHT22;54976;51.510;7.522;2023-12-29T05:11:35;10.90;99.90
58638;DHT22;54976;51.510;7.522;2023-12-29T05:14:36;10.80;99.90
58638;DHT22;54976;51.510;7.522;2023-12-29T05:17:37;10.70;99.90
58638;DHT22;54976;51.510;7.522;2023-12-29T05:20:39;10.70;99.90
58638;DHT22;54976;51.510;7.522;2023-12-29T05:23:40;10.70;99.90
58638;DHT22;54976;51.510;7.522;2023-12-29T05:26:40;10.70;99.90
58638;DHT22;54976;51.510;7.522;2023-12-29T05:29:41;10.60;99.90
58638;DHT22;54976;51.510;7.522;2023-12-29T05:32:42;10.60;99.90
58638;DHT22;54976;51.510;7.522;2023-12-29T05:35:42;10.60;99.90
58638;DHT22;54976;51.510;7.522;2023-12-29T05:38:45;10.60;99.90
58638;DHT22;54976;51.510;7.522;2023-12-29T05:41:47;10.70;99.90
58638;DHT22;54976;51.510;7.522;2023-12-29T05:44:47;10.70;99.90
58638;DHT22;54976;51.510;7.522;2023-12-29T05:47:48;10.60;99.90
58638;DHT22;54976;51.510;7.522;2023-12-29T05:50:49;10.70;99.90
58638;DHT22;54976;51.510;7.522;2023-12-29T05:53:49;10.70;99.90
58638;DHT22;54976;51.510;7.522;2023-12-29T05:56:50;10.70;99.90
58638;DHT22;54976;51.510;7.522;2023-12-29T05:59:50;10.70;99.90
58638;DHT22;54976;51.510;7.522;2023-12-29T06:02:51;10.80;99.90
58638;DHT22;54976;51.510;7.522;2023-12-29T06:05:52;10.80;99.90
58638;DHT22;54976;51.510;7.522;2023-12-29T06:08:53;10.80;99.90
58638;DHT22;54976;51.510;7.522;2023-12-29T06:11:54;10.80;99.90
58638;DHT22;54976;51.510;7.522;2023-12-29T06:14:55;10.80;99.90
58638;DHT22;54976;51.510;7.522;2023-12-29T06:17:56;10.90;99.90
58638;DHT22;54976;51.510;7.522;2023-12-29T06:20:57;10.80;99.90
58638;DHT22;54976;51.510;7.522;2023-12-29T06:23:57;10.90;99.90
58638;DHT22;54976;51.510;7.522;2023-12-29T06:26:58;10.90;99.90
58638;DHT22;54976;51.510;7.522;2023-12-29T06:29:59;10.90;99.90
58638;DHT22;54976;51.510;7.522;2023-12-29T06:32:59;11.00;99.90
58638;DHT22;54976;51.510;7.522;2023-12-29T06:36:00;11.00;99.90
58638;DHT22;54976;51.510;7.522;2023-12-29T06:39:01;10.90;99.90
58638;DHT22;54976;51.510;7.522;2023-12-29T06:42:02;10.90;99.90
58638;DHT22;54976;51.510;7.522;2023-12-29T06:45:04;10.90;99.90
58638;DHT22;54976;51.510;7.522;2023-12-29T06:48:05;10.90;99.90
58638;DHT22;54976;51.510;7.522;2023-12-29T06:51:06;10.80;99.90
58638;DHT22;54976;51.510;7.522;2023-12-29T06:54:07;10.90;99.90
58638;DHT22;54976;51.510;7.522;2023-12-29T06:57:08;11.00;99.90
58638;DHT22;54976;51.510;7.522;2023-12-29T07:00:09;10.90;99.90
58638;DHT22;54976;51.510;7.522;2023-12-29T07:03:12;10.90;99.90
58638;DHT22;54976;51.510;7.522;2023-12-29T07:06:13;11.10;99.90
58638;DHT22;54976;51.510;7.522;2023-12-29T07:09:14;11.00;99.90
58638;DHT22;54976;51.510;7.522;2023-12-29T07:12:14;11.00;99.90
58638;DHT22;54976;51.510;7.522;2023-12-29T07:15:16;11.00;99.90
58638;DHT22;54976;51.510;7.522;2023-12-29T07:18:16;11.00;99.90
58638;DHT22;54976;51.510;7.522;2023-12-29T07:21:17;11.00;99.90
58638;DHT22;54976;51.510;7.522;2023-12-29T07:24:18;11.00;99.90
58638;DHT22;54976;51.510;7.522;2023-12-29T07:27:19;11.00;99.90
58638;DHT22;54976;51.510;7.522;2023-12-29T07:30:19;11.00;99.90
58638;DHT22;54976;51.510;7.522;2023-12-29T07:33:20;10.90;99.90
58638;DHT22;54976;51.510;7.522;2023-12-29T07:36:21;10.80;99.90
58638;DHT22;54976;51.510;7.522;2023-12-29T07:39:21;10.70;99.90
58638;DHT22;54976;51.510;7.522;2023-12-29T07:42:22;10.60;99.90
58638;DHT22;54976;51.510;7.522;2023-12-29T07:45:23;10.50;99.90
58638;DHT22;54976;51.510;7.522;2023-12-29T07:48:23;10.30;99.90
58638;DHT22;54976;51.510;7.522;2023-12-29T07:51:24;10.20;99.90
58638;DHT22;54976;51.510;7.522;2023-12-29T07:54:25;10.10;99.90
58638;DHT22;54976;51.510;7.522;2023-12-29T07:57:25;10.10;99.90
58638;DHT22;54976;51.510;7.522;2023-12-29T08:00:26;10.00;99.90
58638;DHT22;54976;51.510;7.522;2023-12-29T08:03:27;9.90;99.90
58638;DHT22;54976;51.510;7.522;2023-12-29T08:06:27;9.90;99.90
58638;DHT22;54976;51.510;7.522;2023-12-29T08:09:28;9.80;99.90
58638;DHT22;54976;51.510;7.522;2023-12-29T08:12:28;9.80;99.90
58638;DHT22;54976;51.510;7.522;2023-12-29T08:15:29;9.80;99.90
58638;DHT22;54976;51.510;7.522;2023-12-29T08:18:30;9.80;99.90
58638;DHT22;54976;51.510;7.522;2023-12-29T08:21:30;9.70;99.90
58638;DHT22;54976;51.510;7.522;2023-12-29T08:24:31;9.80;99.90
58638;DHT22;54976;51.510;7.522;2023-12-29T08:27:31;9.80;99.90
58638;DHT22;54976;51.510;7.522;2023-12-29T08:30:34;9.80;99.90
58638;DHT22;54976;51.510;7.522;2023-12-29T08:33:35;9.90;99.90
58638;DHT22;54976;51.510;7.522;2023-12-29T08:36:36;9.90;99.90
58638;DHT22;54976;51.510;7.522;2023-12-29T08:39:37;9.80;99.90
58638;DHT22;54976;51.510;7.522;2023-12-29T08:42:37;9.80;99.90
58638;DHT22;54976;51.510;7.522;2023-12-29T08:45:38;9.90;99.90
58638;DHT22;54976;51.510;7.522;2023-12-29T08:48:38;9.90;99.90
58638;DHT22;54976;51.510;7.522;2023-12-29T08:51:39;9.80;99.90
58638;DHT22;54976;51.510;7.522;2023-12-29T08:54:40;9.90;99.90
58638;DHT22;54976;51.510;7.522;2023-12-29T08:57:40;9.90;99.90
58638;DHT22;54976;51.510;7.522;2023-12-29T09:00:41;9.90;99.90
58638;DHT22;54976;51.510;7.522;2023-12-29T09:03:41;10.00;99.90
58638;DHT22;54976;51.510;7.522;2023-12-29T09:06:42;10.10;99.90
58638;DHT22;54976;51.510;7.522;2023-12-29T09:09:43;10.00;99.90
58638;DHT22;54976;51.510;7.522;2023-12-29T09:12:44;10.10;99.90
58638;DHT22;54976;51.510;7.522;2023-12-29T09:15:44;10.10;99.90
58638;DHT22;54976;51.510;7.522;2023-12-29T09:18:45;10.10;99.90
58638;DHT22;54976;51.510;7.522;2023-12-29T09:21:45;10.20;99.90
58638;DHT22;54976;51.510;7.522;2023-12-29T09:24:46;10.30;99.90
58638;DHT22;54976;51.510;7.522;2023-12-29T09:27:47;10.30;99.90
58638;DHT22;54976;51.510;7.522;2023-12-29T09:30:49;10.40;99.90
58638;DHT22;54976;51.510;7.522;2023-12-29T09:33:50;10.40;99.90
58638;DHT22;54976;51.510;7.522;2023-12-29T09:36:50;10.40;99.90
58638;DHT22;54976;51.510;7.522;2023-12-29T09:39:51;10.40;99.90
58638;DHT22;54976;51.510;7.522;2023-12-29T09:42:52;10.40;99.90
58638;DHT22;54976;51.510;7.522;2023-12-29T09:45:52;10.50;99.90
58638;DHT22;54976;51.510;7.522;2023-12-29T09:48:55;10.50;99.90
58638;DHT22;54976;51.510;7.522;2023-12-29T09:51:58;10.50;99.90
58638;DHT22;54976;51.510;7.522;2023-12-29T09:54:59;10.60;99.90
58638;DHT22;54976;51.510;7.522;2023-12-29T09:58:01;10.60;99.90
58638;DHT22;54976;51.510;7.522;2023-12-29T10:01:03;10.70;99.90
58638;DHT22;54976;51.510;7.522;2023-12-29T10:04:05;10.70;99.90
58638;DHT22;54976;51.510;7.522;2023-12-29T10:07:26;10.70;99.90
58638;DHT22;54976;51.510;7.522;2023-12-29T10:10:27;10.70;99.90
58638;DHT22;54976;51.510;7.522;2023-12-29T10:13:34;10.70;99.90
58638;DHT22;54976;51.510;7.522;2023-12-29T10:16:42;10.70;99.90
58638;DHT22;54976;51.510;7.522;2023-12-29T10:20:10;10.50;99.90
58638;DHT22;54976;51.510;7.522;2023-12-29T10:23:22;10.50;99.90
58638;DHT22;54976;51.510;7.522;2023-12-29T10:26:33;10.50;99.90
58638;DHT22;54976;51.510;7.522;2023-12-29T10:29:50;10.50;99.90
58638;DHT22;54976;51.510;7.522;2023-12-29T10:32:52;10.40;99.90
58638;DHT22;54976;51.510;7.522;2023-12-29T10:36:00;10.50;99.90
58638;DHT22;54976;51.510;7.522;2023-12-29T10:39:06;10.60;99.90
58638;DHT22;54976;51.510;7.522;2023-12-29T10:42:10;10.40;99.90
58638;DHT22;54976;51.510;7.522;2023-12-29T10:45:11;10.30;99.90
58638;DHT22;54976;51.510;7.522;2023-12-29T10:48:12;10.40;99.90
58638;DHT22;54976;51.510;7.522;2023-12-29T10:51:34;10.40;99.90
58638;DHT22;54976;51.510;7.522;2023-12-29T10:54:43;10.50;99.90
58638;DHT22;54976;51.510;7.522;2023-12-29T10:57:44;10.40;99.90
58638;DHT22;54976;51.510;7.522;2023-12-29T11:00:45;10.50;99.90
58638;DHT22;54976;51.510;7.522;2023-12-29T11:04:00;10.50;99.90
58638;DHT22;54976;51.510;7.522;2023-12-29T11:07:01;10.60;99.90
58638;DHT22;54976;51.510;7.522;2023-12-29T11:10:24;10.70;99.90
58638;DHT22;54976;51.510;7.522;2023-12-29T11:13:38;10.90;99.90
58638;DHT22;54976;51.510;7.522;2023-12-29T11:16:39;11.00;99.90
58638;DHT22;54976;51.510;7.522;2023-12-29T11:19:44;11.10;99.90
58638;DHT22;54976;51.510;7.522;2023-12-29T11:22:46;11.10;99.90
58638;DHT22;54976;51.510;7.522;2023-12-29T11:25:47;11.30;99.90
58638;DHT22;54976;51.510;7.522;2023-12-29T11:28:49;11.40;99.90
58638;DHT22;54976;51.510;7.522;2023-12-29T11:31:52;11.50;99.90
58638;DHT22;54976;51.510;7.522;2023-12-29T11:35:05;11.60;99.90
58638;DHT22;54976;51.510;7.522;2023-12-29T11:44:49;11.60;99.90
58638;DHT22;54976;51.510;7.522;2023-12-29T11:47:51;11.60;99.90
58638;DHT22;54976;51.510;7.522;2023-12-29T11:50:54;11.70;99.90
58638;DHT22;54976;51.510;7.522;2023-12-29T11:53:54;11.70;99.90
58638;DHT22;54976;51.510;7.522;2023-12-29T11:56:55;11.80;99.90
58638;DHT22;54976;51.510;7.522;2023-12-29T11:59:56;11.70;99.90
58638;DHT22;54976;51.510;7.522;2023-12-29T12:02:57;11.80;99.90
58638;DHT22;54976;51.510;7.522;2023-12-29T12:05:58;11.80;99.90
58638;DHT22;54976;51.510;7.522;2023-12-29T12:09:25;11.80;99.90
58638;DHT22;54976;51.510;7.522;2023-12-29T12:12:39;11.90;99.90
58638;DHT22;54976;51.510;7.522;2023-12-29T12:15:43;11.70;99.90
58638;DHT22;54976;51.510;7.522;2023-12-29T12:18:43;11.60;99.90
58638;DHT22;54976;51.510;7.522;2023-12-29T12:21:47;11.60;99.90
58638;DHT22;54976;51.510;7.522;2023-12-29T12:24:54;11.50;99.90
58638;DHT22;54976;51.510;7.522;2023-12-29T12:27:56;11.40;99.90
58638;DHT22;54976;51.510;7.522;2023-12-29T12:31:06;11.40;99.90
58638;DHT22;54976;51.510;7.522;2023-12-29T12:34:09;11.50;99.90
58638;DHT22;54976;51.510;7.522;2023-12-29T12:37:09;11.50;99.90
58638;DHT22;54976;51.510;7.522;2023-12-29T12:40:10;11.60;99.90
58638;DHT22;54976;51.510;7.522;2023-12-29T12:43:16;11.60;99.90
58638;DHT22;54976;51.510;7.522;2023-12-29T12:46:16;11.60;99.90
58638;DHT22;54976;51.510;7.522;2023-12-29T12:49:18;11.60;99.90
58638;DHT22;54976;51.510;7.522;2023-12-29T12:52:19;11.50;99.90
58638;DHT22;54976;51.510;7.522;2023-12-29T12:55:20;11.30;99.90
58638;DHT22;54976;51.510;7.522;2023-12-29T12:58:21;11.20;99.90
58638;DHT22;54976;51.510;7.522;2023-12-29T13:01:21;11.10;99.90
58638;DHT22;54976;51.510;7.522;2023-12-29T13:04:22;11.00;99.90
58638;DHT22;54976;51.510;7.522;2023-12-29T13:07:23;10.90;99.90
58638;DHT22;54976;51.510;7.522;2023-12-29T13:10:24;10.80;99.90
58638;DHT22;54976;51.510;7.522;2023-12-29T13:13:35;10.80;99.90
58638;DHT22;54976;51.510;7.522;2023-12-29T13:16:37;10.60;99.90
58638;DHT22;54976;51.510;7.522;2023-12-29T13:19:39;10.60;99.90
58638;DHT22;54976;51.510;7.522;2023-12-29T13:22:39;10.50;99.90
58638;DHT22;54976;51.510;7.522;2023-12-29T13:25:43;10.40;99.90
58638;DHT22;54976;51.510;7.522;2023-12-29T13:28:44;10.50;99.90
58638;DHT22;54976;51.510;7.522;2023-12-29T13:31:46;10.40;99.90
58638;DHT22;54976;51.510;7.522;2023-12-29T13:35:06;10.40;99.90
58638;DHT22;54976;51.510;7.522;2023-12-29T13:38:12;10.40;99.90
58638;DHT22;54976;51.510;7.522;2023-12-29T13:41:18;10.40;99.90
58638;DHT22;54976;51.510;7.522;2023-12-29T13:44:20;10.50;99.90
58638;DHT22;54976;51.510;7.522;2023-12-29T13:47:22;10.50;99.90
58638;DHT22;54976;51.510;7.522;2023-12-29T13:50:23;10.50;99.90
58638;DHT22;54976;51.510;7.522;2023-12-29T13:53:23;10.70;99.90
58638;DHT22;54976;51.510;7.522;2023-12-29T13:56:24;10.50;99.90
58638;DHT22;54976;51.510;7.522;2023-12-29T13:59:31;10.50;99.90
58638;DHT22;54976;51.510;7.522;2023-12-29T14:02:35;10.60;99.90
58638;DHT22;54976;51.510;7.522;2023-12-29T14:08:41;10.50;99.90
58638;DHT22;54976;51.510;7.522;2023-12-29T14:11:48;10.50;99.90
58638;DHT22;54976;51.510;7.522;2023-12-29T14:14:49;10.50;99.90
58638;DHT22;54976;51.510;7.522;2023-12-29T14:17:50;10.50;99.90
58638;DHT22;54976;51.510;7.522;2023-12-29T14:20:50;10.60;99.90
58638;DHT22;54976;51.510;7.522;2023-12-29T14:24:10;10.60;99.90
58638;DHT22;54976;51.510;7.522;2023-12-29T14:27:12;10.60;99.90
58638;DHT22;54976;51.510;7.522;2023-12-29T14:30:19;10.70;99.90
58638;DHT22;54976;51.510;7.522;2023-12-29T14:33:20;10.70;99.90
58638;DHT22;54976;51.510;7.522;2023-12-29T14:36:20;10.70;99.90
58638;DHT22;54976;51.510;7.522;2023-12-29T14:39:21;10.70;99.90
58638;DHT22;54976;51.510;7.522;2023-12-29T14:42:21;10.80;99.90
58638;DHT22;54976;51.510;7.522;2023-12-29T14:45:22;10.80;99.90
58638;DHT22;54976;51.510;7.522;2023-12-29T14:48:23;10.80;99.90
58638;DHT22;54976;51.510;7.522;2023-12-29T14:51:25;10.80;99.90
58638;DHT22;54976;51.510;7.522;2023-12-29T14:54:25;10.80;99.90
58638;DHT22;54976;51.510;7.522;2023-12-29T14:57:26;10.80;99.90
58638;DHT22;54976;51.510;7.522;2023-12-29T15:00:26;10.80;99.90
58638;DHT22;54976;51.510;7.522;2023-12-29T15:03:27;10.80;99.90
58638;DHT22;54976;51.510;7.522;2023-12-29T15:06:27;10.80;99.90
58638;DHT22;54976;51.510;7.522;2023-12-29T15:09:28;10.80;99.90
58638;DHT22;54976;51.510;7.522;2023-12-29T15:12:30;10.80;99.90
58638;DHT22;54976;51.510;7.522;2023-12-29T15:15:31;10.80;99.90
58638;DHT22;54976;51.510;7.522;2023-12-29T15:18:32;10.80;99.90
58638;DHT22;54976;51.510;7.522;2023-12-29T15:21:32;10.80;99.90
58638;DHT22;54976;51.510;7.522;2023-12-29T15:24:33;10.70;99.90
58638;DHT22;54976;51.510;7.522;2023-12-29T15:27:33;10.70;99.90
58638;DHT22;54976;51.510;7.522;2023-12-29T15:30:34;10.70;99.90
58638;DHT22;54976;51.510;7.522;2023-12-29T15:33:34;10.70;99.90
58638;DHT22;54976;51.510;7.522;2023-12-29T15:36:35;10.70;99.90
58638;DHT22;54976;51.510;7.522;2023-12-29T15:39:36;10.70;99.90
58638;DHT22;54976;51.510;7.522;2023-12-29T15:42:36;10.60;99.90
58638;DHT22;54976;51.510;7.522;2023-12-29T15:45:37;10.40;99.90
58638;DHT22;54976;51.510;7.522;2023-12-29T15:48:37;10.40;99.90
58638;DHT22;54976;51.510;7.522;2023-12-29T15:51:38;10.30;99.90
58638;DHT22;54976;51.510;7.522;2023-12-29T15:54:38;10.30;99.90
58638;DHT22;54976;51.510;7.522;2023-12-29T15:57:39;10.30;99.90
58638;DHT22;54976;51.510;7.522;2023-12-29T16:00:40;10.30;99.90
58638;DHT22;54976;51.510;7.522;2023-12-29T16:03:40;10.20;99.90
58638;DHT22;54976;51.510;7.522;2023-12-29T16:06:41;10.20;99.90
58638;DHT22;54976;51.510;7.522;2023-12-29T16:09:41;10.20;99.90
58638;DHT22;54976;51.510;7.522;2023-12-29T16:12:42;10.10;99.90
58638;DHT22;54976;51.510;7.522;2023-12-29T16:15:43;10.10;99.90
58638;DHT22;54976;51.510;7.522;2023-12-29T16:18:44;10.10;99.90
58638;DHT22;54976;51.510;7.522;2023-12-29T16:21:45;10.10;99.90
58638;DHT22;54976;51.510;7.522;2023-12-29T16:24:46;10.20;99.90
58638;DHT22;54976;51.510;7.522;2023-12-29T16:27:49;10.20;99.90
58638;DHT22;54976;51.510;7.522;2023-12-29T16:30:50;10.20;99.90
58638;DHT22;54976;51.510;7.522;2023-12-29T16:33:51;10.30;99.90
58638;DHT22;54976;51.510;7.522;2023-12-29T16:36:59;10.30;99.90
58638;DHT22;54976;51.510;7.522;2023-12-29T16:40:00;10.50;99.90
58638;DHT22;54976;51.510;7.522;2023-12-29T16:43:01;10.30;99.90
58638;DHT22;54976;51.510;7.522;2023-12-29T16:46:02;10.40;99.90
58638;DHT22;54976;51.510;7.522;2023-12-29T16:49:02;10.40;99.90
58638;DHT22;54976;51.510;7.522;2023-12-29T16:52:04;10.30;99.90
58638;DHT22;54976;51.510;7.522;2023-12-29T16:55:05;10.30;99.90
58638;DHT22;54976;51.510;7.522;2023-12-29T16:58:06;10.20;99.90
58638;DHT22;54976;51.510;7.522;2023-12-29T17:01:07;10.20;99.90
58638;DHT22;54976;51.510;7.522;2023-12-29T17:04:08;10.10;99.90
58638;DHT22;54976;51.510;7.522;2023-12-29T17:07:09;10.10;99.90
58638;DHT22;54976;51.510;7.522;2023-12-29T17:10:10;10.10;99.90
58638;DHT22;54976;51.510;7.522;2023-12-29T17:13:10;10.10;99.90
58638;DHT22;54976;51.510;7.522;2023-12-29T17:16:11;10.10;99.90
58638;DHT22;54976;51.510;7.522;2023-12-29T17:19:12;10.10;99.90
58638;DHT22;54976;51.510;7.522;2023-12-29T17:22:12;10.10;99.90
58638;DHT22;54976;51.510;7.522;2023-12-29T17:25:13;10.10;99.90
58638;DHT22;54976;51.510;7.522;2023-12-29T17:28:14;10.10;99.90
58638;DHT22;54976;51.510;7.522;2023-12-29T17:31:14;10.20;99.90
58638;DHT22;54976;51.510;7.522;2023-12-29T17:34:15;10.10;99.90
58638;DHT22;54976;51.510;7.522;2023-12-29T17:37:16;10.10;99.90
58638;DHT22;54976;51.510;7.522;2023-12-29T17:40:16;10.10;99.90
58638;DHT22;54976;51.510;7.522;2023-12-29T17:43:17;10.10;99.90
58638;DHT22;54976;51.510;7.522;2023-12-29T17:46:17;10.10;99.90
58638;DHT22;54976;51.510;7.522;2023-12-29T17:49:18;10.10;99.90
58638;DHT22;54976;51.510;7.522;2023-12-29T17:52:22;10.20;99.90
58638;DHT22;54976;51.510;7.522;2023-12-29T17:55:23;10.10;99.90
58638;DHT22;54976;51.510;7.522;2023-12-29T17:58:23;10.10;99.90
58638;DHT22;54976;51.510;7.522;2023-12-29T18:01:24;10.10;99.90
58638;DHT22;54976;51.510;7.522;2023-12-29T18:04:25;10.20;99.90
58638;DHT22;54976;51.510;7.522;2023-12-29T18:07:25;10.30;99.90
58638;DHT22;54976;51.510;7.522;2023-12-29T18:10:26;10.30;99.90
58638;DHT22;54976;51.510;7.522;2023-12-29T18:13:26;10.40;99.90
58638;DHT22;54976;51.510;7.522;2023-12-29T18:16:27;10.40;99.90
58638;DHT22;54976;51.510;7.522;2023-12-29T18:19:29;10.40;99.90
58638;DHT22;54976;51.510;7.522;2023-12-29T18:22:30;10.40;99.90
58638;DHT22;54976;51.510;7.522;2023-12-29T18:25:30;10.40;99.90
58638;DHT22;54976;51.510;7.522;2023-12-29T18:28:31;10.50;99.90
58638;DHT22;54976;51.510;7.522;2023-12-29T18:31:31;10.50;99.90
58638;DHT22;54976;51.510;7.522;2023-12-29T18:34:32;10.50;99.90
58638;DHT22;54976;51.510;7.522;2023-12-29T18:37:33;10.50;99.90
58638;DHT22;54976;51.510;7.522;2023-12-29T18:40:33;10.50;99.90
58638;DHT22;54976;51.510;7.522;2023-12-29T18:43:35;10.50;99.90
58638;DHT22;54976;51.510;7.522;2023-12-29T18:46:35;10.50;99.90
58638;DHT22;54976;51.510;7.522;2023-12-29T18:49:36;10.60;99.90
58638;DHT22;54976;51.510;7.522;2023-12-29T18:52:37;10.60;99.90
58638;DHT22;54976;51.510;7.522;2023-12-29T18:55:37;10.60;99.90
58638;DHT22;54976;51.510;7.522;2023-12-29T18:58:43;10.80;99.90
58638;DHT22;54976;51.510;7.522;2023-12-29T19:01:47;10.70;99.90
58638;DHT22;54976;51.510;7.522;2023-12-29T19:04:48;10.80;99.90
58638;DHT22;54976;51.510;7.522;2023-12-29T19:07:49;10.70;99.90
58638;DHT22;54976;51.510;7.522;2023-12-29T19:10:49;10.70;99.90
58638;DHT22;54976;51.510;7.522;2023-12-29T19:13:50;10.70;99.90
58638;DHT22;54976;51.510;7.522;2023-12-29T19:16:51;10.70;99.90
58638;DHT22;54976;51.510;7.522;2023-12-29T19:19:52;10.60;99.90
58638;DHT22;54976;51.510;7.522;2023-12-29T19:22:53;10.70;99.90